Time;durP1;ratioP1;P1;durP2;ratioP2;P2;SDS_P1;SDS_P2;PMS_P1;PMS_P2;Temp;Humidity;BMP_temperature;BMP_pressure;BME280_temperature;BME280_humidity;BME280_pressure;Samples;Min_cycle;Max_cycle;Signal;HPM_P1;HPM_P2
2021/11/09 00:01:25;;;;;;;16.23;8.13;;;;;;;15.77;69.30;101506.38;5082903;28;20032;-74
2021/11/09 00:04:01;;;;;;;16.73;8.13;;;;;;;15.76;69.41;101505.47;5080471;28;20036;-73
2021/11/09 00:06:31;;;;;;;14.30;8.65;;;;;;;15.78;69.20;101494.84;5067943;28;20450;-73
2021/11/09 00:09:07;;;;;;;16.30;7.60;;;;;;;15.77;69.27;101498.38;5069770;28;20503;-73
2021/11/09 00:11:36;;;;;;;14.38;7.88;;;;;;;15.75;69.22;101506.34;5081030;28;20036;-73
2021/11/09 00:14:03;;;;;;;15.57;8.02;;;;;;;15.74;69.25;101506.38;5086262;28;20111;-73
2021/11/09 00:16:31;;;;;;;15.38;7.80;;;;;;;15.73;69.18;101499.25;5077497;28;20037;-73
2021/11/09 00:19:02;;;;;;;19.98;8.90;;;;;;;15.69;69.31;101503.66;5089429;28;20040;-74
2021/11/09 00:21:31;;;;;;;14.85;8.38;;;;;;;15.67;69.20;101501.88;5089275;28;20052;-73
2021/11/09 00:24:00;;;;;;;14.98;7.60;;;;;;;15.65;69.45;101493.88;5089019;28;20127;-73
2021/11/09 00:26:29;;;;;;;15.27;7.53;;;;;;;15.63;69.31;101494.75;5088667;28;20148;-73
2021/11/09 00:28:58;;;;;;;15.45;8.75;;;;;;;15.60;69.18;101492.97;5076367;28;20056;-73
2021/11/09 00:31:26;;;;;;;16.65;7.35;;;;;;;15.61;69.29;101485.88;5063696;28;20114;-74
2021/11/09 00:33:54;;;;;;;13.18;7.45;;;;;;;15.64;68.94;101488.53;5068019;28;20041;-75
2021/11/09 00:36:23;;;;;;;14.95;7.20;;;;;;;15.67;68.72;101485.91;5070427;28;20060;-74
2021/11/09 00:38:51;;;;;;;12.02;6.43;;;;;;;15.67;68.49;101485.91;5062678;28;20458;-74
2021/11/09 00:41:18;;;;;;;16.00;7.13;;;;;;;15.68;68.10;101482.38;5100721;28;20146;-74
2021/11/09 00:43:46;;;;;;;13.90;7.65;;;;;;;15.68;68.08;101483.28;5075217;28;20094;-75
2021/11/09 00:46:13;;;;;;;12.45;6.35;;;;;;;15.69;68.00;101489.44;5099899;28;20098;-74
2021/11/09 00:48:41;;;;;;;14.45;6.63;;;;;;;15.67;67.77;101488.56;5068924;28;20120;-74
2021/11/09 00:51:09;;;;;;;11.52;6.35;;;;;;;15.65;67.46;101493.00;5085593;28;20122;-74
2021/11/09 00:53:39;;;;;;;14.88;7.47;;;;;;;15.61;67.29;101492.09;5085974;28;20674;-74
2021/11/09 00:56:07;;;;;;;12.15;6.68;;;;;;;15.56;67.23;101490.28;5096252;28;20035;-74
2021/11/09 00:58:34;;;;;;;13.93;7.68;;;;;;;15.52;67.35;101492.91;5071159;28;20045;-74
2021/11/09 01:01:02;;;;;;;19.30;7.55;;;;;;;15.54;67.35;101490.25;5072919;28;20041;-74
2021/11/09 01:03:30;;;;;;;13.38;6.68;;;;;;;15.52;67.03;101491.97;5076282;28;20457;-73
2021/11/09 01:05:58;;;;;;;12.43;6.40;;;;;;;15.47;67.22;101497.28;5073629;28;20515;-74
2021/11/09 01:08:26;;;;;;;13.38;7.00;;;;;;;15.47;67.14;101496.38;5071562;28;20045;-74
2021/11/09 01:10:57;;;;;;;15.20;8.10;;;;;;;15.45;67.13;101495.47;5073023;28;20134;-74
2021/11/09 01:13:27;;;;;;;15.13;7.65;;;;;;;15.41;67.23;101488.34;5081959;28;20068;-74
2021/11/09 01:15:57;;;;;;;15.40;6.90;;;;;;;15.41;67.46;101488.34;5080267;28;20043;-74
2021/11/09 01:18:30;;;;;;;14.75;6.80;;;;;;;15.38;67.69;101488.31;5071412;28;20037;-74
2021/11/09 01:20:59;;;;;;;15.60;9.02;;;;;;;15.37;67.89;101494.50;5072754;28;20423;-74
2021/11/09 01:23:27;;;;;;;14.95;7.50;;;;;;;15.36;68.05;101490.97;5071154;28;20649;-74
2021/11/09 01:25:57;;;;;;;15.30;9.13;;;;;;;15.33;67.75;101487.41;5079468;28;20036;-74
2021/11/09 01:28:25;;;;;;;16.25;9.15;;;;;;;15.29;67.89;101497.16;5085601;28;20066;-73
2021/11/09 01:30:54;;;;;;;13.88;7.30;;;;;;;15.25;68.21;101495.31;5088196;28;20099;-73
2021/11/09 01:33:23;;;;;;;16.70;9.05;;;;;;;15.23;68.19;101491.75;5055009;28;20438;-73
2021/11/09 01:35:50;;;;;;;16.80;8.15;;;;;;;15.22;68.18;101491.75;5104804;28;20047;-73
2021/11/09 01:38:18;;;;;;;15.68;8.38;;;;;;;15.21;68.21;101490.88;5072125;28;20132;-74
2021/11/09 01:40:47;;;;;;;15.32;8.45;;;;;;;15.22;68.29;101491.75;5071386;28;20053;-73
2021/11/09 01:43:18;;;;;;;16.33;9.55;;;;;;;15.20;68.30;101498.81;5072884;28;20558;-73
2021/11/09 01:45:45;;;;;;;18.67;10.05;;;;;;;15.15;68.35;101502.34;5070615;28;20496;-73
2021/11/09 01:48:14;;;;;;;15.75;8.52;;;;;;;15.13;68.70;101493.44;5072395;28;20873;-73
2021/11/09 01:50:50;;;;;;;14.05;8.18;;;;;;;15.10;68.70;101493.41;5104324;28;20448;-74
2021/11/09 01:53:18;;;;;;;13.38;8.30;;;;;;;15.06;68.76;101496.03;5070711;28;20056;-73
2021/11/09 01:55:46;;;;;;;13.73;8.60;;;;;;;15.03;68.87;101491.56;5075967;28;20138;-73
2021/11/09 01:58:17;;;;;;;14.00;7.47;;;;;;;15.04;68.87;101492.47;5107396;28;20047;-73
2021/11/09 02:00:50;;;;;;;15.65;8.15;;;;;;;15.06;68.84;101496.94;5089354;28;20040;-73
2021/11/09 02:03:18;;;;;;;17.45;8.25;;;;;;;15.03;68.88;101493.38;5069417;28;20496;-73
2021/11/09 02:05:49;;;;;;;18.52;8.68;;;;;;;14.98;69.38;101495.06;5071975;28;20101;-74
2021/11/09 02:08:17;;;;;;;18.77;9.25;;;;;;;14.95;69.64;101500.38;5079750;28;20044;-73
2021/11/09 02:10:48;;;;;;;17.92;10.60;;;;;;;14.97;69.69;101502.16;5081995;28;20444;-73
2021/11/09 02:13:17;;;;;;;18.25;9.98;;;;;;;14.97;69.73;101496.84;5087919;28;20033;-73
2021/11/09 02:15:46;;;;;;;14.82;7.32;;;;;;;14.95;69.72;101497.72;5084829;28;20065;-73
2021/11/09 02:18:16;;;;;;;16.15;9.30;;;;;;;14.96;69.88;101505.72;5080797;28;20075;-74
2021/11/09 02:20:50;;;;;;;16.08;8.93;;;;;;;14.96;69.97;101503.06;5088661;28;20083;-73
2021/11/09 02:23:18;;;;;;;18.77;10.07;;;;;;;14.93;70.00;101504.78;5075477;28;20484;-73
2021/11/09 02:25:45;;;;;;;16.02;10.18;;;;;;;14.91;70.08;101504.75;5077550;28;20032;-74
2021/11/09 02:28:13;;;;;;;16.85;7.95;;;;;;;14.89;70.19;101503.88;5087807;28;20499;-73
2021/11/09 02:30:41;;;;;;;18.50;9.50;;;;;;;14.89;70.26;101497.66;5069897;28;20048;-73
2021/11/09 02:33:09;;;;;;;17.60;8.20;;;;;;;14.86;70.23;101511.81;5069878;28;20052;-73
2021/11/09 02:35:38;;;;;;;18.00;9.48;;;;;;;14.84;70.46;101500.25;5071609;28;20051;-73
2021/11/09 02:38:08;;;;;;;18.35;8.32;;;;;;;14.85;70.47;101507.34;5103321;28;20163;-73
2021/11/09 02:40:36;;;;;;;20.25;9.93;;;;;;;14.83;70.66;101510.91;5070954;28;20442;-73
2021/11/09 02:43:06;;;;;;;16.63;9.60;;;;;;;14.82;70.87;101515.31;5086757;28;20133;-73
2021/11/09 02:45:41;;;;;;;17.48;9.15;;;;;;;14.84;70.93;101525.94;5103205;28;20040;-73
2021/11/09 02:48:13;;;;;;;;;;;;;;;14.84;71.30;101516.19;5085219;28;20052;-72
2021/11/09 02:50:45;;;;;;;22.20;10.88;;;;;;;14.87;71.54;101515.34;5061215;27;19920;-73
2021/11/09 02:53:21;;;;;;;16.23;9.23;;;;;;;14.91;71.67;101522.47;5074084;28;20550;-73
2021/11/09 02:55:52;;;;;;;17.73;10.55;;;;;;;14.88;71.59;101504.75;5086339;28;20044;-73
2021/11/09 02:58:28;;;;;;;16.45;8.38;;;;;;;14.86;71.78;101501.16;5091053;28;20127;-73
2021/11/09 03:01:07;;;;;;;17.88;10.02;;;;;;;14.86;71.77;101502.94;5064836;28;20043;-73
2021/11/09 03:03:39;;;;;;;18.70;10.43;;;;;;;14.87;71.88;101504.72;5061169;28;20037;-73
2021/11/09 03:06:22;;;;;;;17.48;9.43;;;;;;;14.85;71.93;101518.00;5071738;28;20047;-73
2021/11/09 03:08:56;;;;;;;15.68;9.30;;;;;;;14.86;71.82;101511.81;5081934;28;20528;-73
2021/11/09 03:11:24;;;;;;;16.20;8.80;;;;;;;14.85;71.92;101518.00;5105714;28;20078;-74
2021/11/09 03:13:52;;;;;;;14.50;8.27;;;;;;;14.83;71.89;101517.09;5053786;28;20086;-73
2021/11/09 03:16:21;;;;;;;16.35;8.27;;;;;;;14.80;71.91;101516.16;5105227;28;20396;-73
2021/11/09 03:18:52;;;;;;;17.95;9.30;;;;;;;14.78;72.18;101526.78;5087343;28;20048;-73
2021/11/09 03:40:48;;;;;;;15.48;8.98;;;;;;;14.94;70.62;101533.16;5073355;28;20037;-73
2021/11/09 03:46:01;;;;;;;15.10;8.88;;;;;;;14.93;70.49;101537.56;5068563;28;20049;-73
2021/11/09 03:48:29;;;;;;;17.20;8.52;;;;;;;14.94;70.54;101533.16;5088119;28;20040;-74
2021/11/09 03:51:00;;;;;;;14.93;7.90;;;;;;;14.93;70.67;101532.25;5085107;28;20052;-73
2021/11/09 03:53:30;;;;;;;16.20;8.77;;;;;;;14.91;70.77;101530.44;5052702;28;20047;-73
2021/11/09 03:58:43;;;;;;;17.92;9.23;;;;;;;14.88;71.48;101536.66;5062333;28;20047;-74
2021/11/09 04:01:13;;;;;;;17.88;9.27;;;;;;;14.91;71.66;101547.28;5072339;28;20125;-73
2021/11/09 04:03:53;;;;;;;16.65;8.52;;;;;;;14.97;71.72;101546.47;5068630;28;20044;-72
2021/11/09 04:06:30;;;;;;;17.90;9.10;;;;;;;14.96;71.92;101556.22;5060591;28;20096;-73
2021/11/09 04:09:03;;;;;;;18.60;9.95;;;;;;;14.98;71.97;101572.19;5092435;28;20116;-74
2021/11/09 04:11:41;;;;;;;18.50;9.40;;;;;;;15.01;72.05;101561.59;5084781;28;20047;-73
2021/11/09 04:14:16;;;;;;;17.98;9.90;;;;;;;15.03;72.33;101559.84;5099573;28;20076;-73
2021/11/09 04:16:50;;;;;;;17.83;9.63;;;;;;;15.08;72.55;101553.69;5085971;28;20488;-73
2021/11/09 04:28:13;;;;;;;17.52;8.60;;;;;;;15.27;72.54;101551.19;5063902;28;20053;-74
2021/11/09 05:01:15;;;;;;;18.55;10.10;;;;;;;15.31;72.50;101563.63;5055342;28;19928;-74
2021/11/09 05:09:17;;;;;;;17.83;8.45;;;;;;;15.37;72.79;101587.63;5048226;28;20080;-74
2021/11/09 05:11:45;;;;;;;17.52;9.55;;;;;;;15.41;72.86;101589.47;5056991;28;20049;-74
2021/11/09 05:14:17;;;;;;;15.40;8.60;;;;;;;15.46;72.73;101588.63;5064355;28;20045;-74
2021/11/09 05:16:45;;;;;;;14.73;8.05;;;;;;;15.49;72.45;101590.44;5058842;28;20390;-74
2021/11/09 05:19:13;;;;;;;12.65;6.95;;;;;;;15.48;71.95;101599.28;5057203;28;20048;-74
2021/11/09 05:21:41;;;;;;;15.38;7.53;;;;;;;15.47;71.87;101608.16;5064009;28;20049;-74
2021/11/09 05:24:10;;;;;;;21.38;8.63;;;;;;;15.47;72.50;101614.38;5067128;28;20453;-73
2021/11/09 05:26:41;;;;;;;16.50;8.93;;;;;;;15.49;72.81;101611.72;5077868;28;20100;-74
2021/11/09 05:29:09;;;;;;;17.75;8.85;;;;;;;15.53;73.05;101624.22;5064945;28;24333;-74
2021/11/09 05:31:39;;;;;;;17.70;10.05;;;;;;;15.56;72.89;101631.34;5067720;28;20119;-74
2021/11/09 05:34:08;;;;;;;16.80;8.32;;;;;;;15.56;72.72;101629.53;5053453;28;20467;-73
2021/11/09 05:36:37;;;;;;;13.70;7.72;;;;;;;15.56;72.35;101629.53;5033731;28;20037;-74
2021/11/09 05:39:13;;;;;;;12.73;7.13;;;;;;;15.55;71.56;101625.13;5034108;28;20450;-73
2021/11/09 05:41:42;;;;;;;14.95;7.57;;;;;;;15.56;71.55;101632.19;5038306;28;20033;-74
2021/11/09 05:44:10;;;;;;;12.07;7.90;;;;;;;15.59;71.44;101632.25;5069834;28;20082;-73
2021/11/09 05:46:41;;;;;;;13.88;7.70;;;;;;;15.67;71.37;101629.66;5066747;28;20048;-74
2021/11/09 05:49:09;;;;;;;16.75;8.73;;;;;;;15.72;71.36;101636.81;5070418;28;20044;-73
2021/11/09 05:51:37;;;;;;;20.13;8.35;;;;;;;15.75;71.21;101644.78;5053007;28;20494;-74
2021/11/09 05:54:05;;;;;;;17.60;8.93;;;;;;;15.80;71.19;101653.75;5033647;28;20048;-75
2021/11/09 05:56:33;;;;;;;20.60;11.52;;;;;;;15.87;71.56;101654.69;5050921;28;20053;-74
2021/11/09 05:59:01;;;;;;;17.23;11.70;;;;;;;15.97;72.21;101664.50;5039695;28;20136;-74
2021/11/09 06:01:28;;;;;;;17.42;10.60;;;;;;;16.08;72.77;101652.16;5063764;28;20056;-74
2021/11/09 06:03:58;;;;;;;18.58;9.57;;;;;;;16.20;73.07;101660.28;5040407;28;20050;-74
2021/11/09 06:06:26;;;;;;;16.17;7.68;;;;;;;16.31;73.02;101657.66;5048546;28;20061;-74
2021/11/09 06:08:54;;;;;;;16.75;8.05;;;;;;;16.45;73.14;101661.31;5048171;28;20102;-74
2021/11/09 06:11:21;;;;;;;14.27;7.63;;;;;;;16.63;73.00;101671.22;5034139;28;20056;-73
2021/11/09 06:13:49;;;;;;;13.02;7.75;;;;;;;16.80;72.89;101677.53;5039978;28;20480;-74
2021/11/09 06:16:17;;;;;;;15.52;8.10;;;;;;;17.01;73.07;101674.06;5060388;28;20121;-74
2021/11/09 06:18:45;;;;;;;14.05;8.43;;;;;;;17.29;73.28;101670.59;5050725;28;20473;-74
2021/11/09 06:21:15;;;;;;;15.23;7.00;;;;;;;17.55;73.94;101657.31;5043066;28;20117;-75
2021/11/09 06:23:43;;;;;;;13.23;7.05;;;;;;;17.64;73.94;101659.13;5066273;28;20044;-75
2021/11/09 06:26:11;;;;;;;14.68;7.70;;;;;;;17.64;73.64;101653.78;5034866;28;20067;-73
2021/11/09 06:28:40;;;;;;;14.60;6.80;;;;;;;17.65;72.86;101664.47;5051528;28;20116;-72
2021/11/09 06:31:07;;;;;;;14.30;7.22;;;;;;;17.61;72.65;101672.47;5037941;28;20045;-72
2021/11/09 06:33:36;;;;;;;15.32;8.07;;;;;;;17.63;72.51;101676.94;5064701;28;20550;-72
2021/11/09 06:36:05;;;;;;;14.60;8.23;;;;;;;17.62;72.73;101677.81;5064966;28;20036;-72
2021/11/09 06:38:34;;;;;;;17.38;8.75;;;;;;;17.66;72.90;101682.25;5040380;28;20041;-71
2021/11/09 06:41:02;;;;;;;17.23;9.18;;;;;;;17.71;73.23;101696.53;5059809;28;20040;-72
2021/11/09 06:43:30;;;;;;;19.30;10.05;;;;;;;17.81;73.45;101694.75;5041241;28;20089;-72
2021/11/09 06:45:57;;;;;;;14.82;7.80;;;;;;;17.93;73.94;101700.09;5046561;28;20090;-72
2021/11/09 06:48:26;;;;;;;13.68;7.88;;;;;;;18.10;73.38;101694.78;5043016;28;20541;-72
2021/11/09 06:50:54;;;;;;;13.70;8.10;;;;;;;18.19;72.70;101698.31;5061307;28;20068;-72
2021/11/09 06:53:21;;;;;;;14.85;7.90;;;;;;;18.28;71.74;101703.66;5059196;28;20123;-72
2021/11/09 06:55:51;;;;;;;12.30;7.32;;;;;;;18.43;71.75;101709.88;5044354;28;20436;-72
2021/11/09 06:58:18;;;;;;;16.98;8.05;;;;;;;18.59;71.80;101711.66;5042948;28;20045;-72
2021/11/09 07:00:47;;;;;;;11.52;7.18;;;;;;;18.69;71.96;101708.09;5046987;28;20094;-72
2021/11/09 07:03:15;;;;;;;15.98;7.97;;;;;;;18.83;72.11;101702.69;5068635;28;20072;-73
2021/11/09 07:05:42;;;;;;;14.20;8.57;;;;;;;18.96;71.72;101691.97;5062376;28;20041;-72
2021/11/09 07:08:10;;;;;;;14.10;8.32;;;;;;;19.08;71.43;101704.38;5044933;28;20848;-73
2021/11/09 07:10:38;;;;;;;14.90;7.63;;;;;;;19.16;71.38;101699.91;5039722;28;20113;-72
2021/11/09 07:13:07;;;;;;;13.10;7.90;;;;;;;19.24;71.57;101713.22;5027506;28;20045;-72
2021/11/09 07:15:35;;;;;;;13.88;8.60;;;;;;;19.32;71.90;101711.41;5039417;28;20037;-71
2021/11/09 07:18:02;;;;;;;15.98;9.00;;;;;;;19.40;72.28;101713.16;5061622;28;20045;-72
2021/11/09 07:20:31;;;;;;;16.88;9.38;;;;;;;19.49;72.62;101710.44;5060380;28;20412;-72
2021/11/09 07:23:03;;;;;;;20.52;9.65;;;;;;;19.72;73.27;101714.78;5047444;28;20130;-73
2021/11/09 07:25:31;;;;;;;16.10;9.32;;;;;;;19.98;73.28;101703.88;5063656;28;20036;-72
2021/11/09 07:27:59;;;;;;;16.70;9.57;;;;;;;20.30;73.00;101712.53;5061595;28;20500;-74
2021/11/09 07:30:38;;;;;;;15.70;9.27;;;;;;;20.59;72.03;101702.44;5050446;28;20046;-74
2021/11/09 07:33:06;;;;;;;15.73;9.60;;;;;;;20.76;71.71;101698.66;5058957;28;20106;-73
2021/11/09 07:35:34;;;;;;;18.60;9.68;;;;;;;20.95;71.73;101686.81;5039589;28;20498;-72
2021/11/09 07:38:01;;;;;;;19.00;10.93;;;;;;;21.04;71.62;101698.34;5053951;28;20040;-72
2021/11/09 07:40:30;;;;;;;16.35;10.60;;;;;;;21.02;71.63;101697.47;5025596;28;20044;-72
2021/11/09 07:42:57;;;;;;;22.05;11.63;;;;;;;21.00;71.96;101693.03;5040175;28;20385;-72
2021/11/09 07:45:25;;;;;;;19.65;9.38;;;;;;;21.20;72.53;101692.81;5063575;28;20067;-73
2021/11/09 07:47:56;;;;;;;18.38;10.45;;;;;;;21.46;72.27;101690.66;5063017;28;20036;-72
2021/11/09 07:50:25;;;;;;;17.13;9.95;;;;;;;21.69;71.94;101690.28;5044003;28;20051;-72
2021/11/09 07:52:57;;;;;;;14.60;9.77;;;;;;;21.94;72.06;101696.16;5057659;28;20481;-73
2021/11/09 07:55:25;;;;;;;17.10;9.05;;;;;;;22.13;70.94;101695.88;5055352;28;20584;-72
2021/11/09 07:57:57;;;;;;;17.55;9.57;;;;;;;22.30;70.83;101694.72;5041885;28;20039;-72
2021/11/09 08:00:32;;;;;;;17.83;9.63;;;;;;;22.38;70.76;101680.22;5038912;28;20720;-72
2021/11/09 08:03:07;;;;;;;18.27;9.80;;;;;;;22.43;70.38;101686.38;5041001;28;20047;-72
2021/11/09 08:05:38;;;;;;;16.35;10.05;;;;;;;22.46;70.00;101689.00;5066700;28;20041;-72
2021/11/09 08:08:11;;;;;;;21.15;11.98;;;;;;;22.57;69.73;101689.72;5042319;28;20044;-72
2021/11/09 08:10:39;;;;;;;19.48;10.50;;;;;;;22.75;69.89;101682.22;5059221;28;20044;-72
2021/11/09 08:13:07;;;;;;;15.75;9.75;;;;;;;22.95;69.59;101688.97;5051005;28;20044;-72
2021/11/09 08:15:35;;;;;;;15.80;9.68;;;;;;;23.10;69.07;101686.88;5058038;28;20536;-72
2021/11/09 08:18:09;;;;;;;14.25;8.65;;;;;;;23.30;68.71;101693.59;5055271;28;20685;-71
2021/11/09 08:20:37;;;;;;;14.73;8.35;;;;;;;23.52;67.90;101690.47;5058483;28;20434;-72
2021/11/09 08:23:05;;;;;;;21.00;10.00;;;;;;;23.73;65.75;101688.16;5066659;28;20684;-72
2021/11/09 08:25:33;;;;;;;21.23;11.88;;;;;;;23.91;65.45;101686.81;5039952;28;20049;-71
2021/11/09 08:28:01;;;;;;;15.75;8.45;;;;;;;24.11;65.60;101680.91;5039303;28;20037;-72
2021/11/09 08:30:30;;;;;;;15.13;8.75;;;;;;;24.25;64.23;101680.59;5038028;28;20045;-72
2021/11/09 08:32:59;;;;;;;16.55;8.43;;;;;;;24.41;63.54;101680.16;5045800;28;20052;-72
2021/11/09 08:35:29;;;;;;;14.65;8.68;;;;;;;24.55;63.01;101679.75;5043456;28;20043;-72
2021/11/09 08:37:57;;;;;;;17.17;7.78;;;;;;;24.58;63.21;101690.50;5043677;28;20045;-71
2021/11/09 08:40:25;;;;;;;12.18;7.85;;;;;;;24.63;62.72;101688.53;5059345;28;20056;-72
2021/11/09 08:42:55;;;;;;;14.93;7.57;;;;;;;24.75;62.15;101682.78;5042414;28;20040;-71
2021/11/09 08:45:33;;;;;;;14.63;9.32;;;;;;;24.74;61.90;101686.44;5044289;28;20485;-72
2021/11/09 08:48:08;;;;;;;14.95;9.10;;;;;;;24.76;62.39;101686.38;5058143;28;20076;-72
2021/11/09 08:50:38;;;;;;;16.70;9.15;;;;;;;24.71;61.62;101685.63;5062399;28;20095;-72
2021/11/09 08:53:10;;;;;;;19.38;9.65;;;;;;;24.66;61.68;101693.00;5057667;28;20044;-71
2021/11/09 08:55:55;;;;;;;14.55;8.88;;;;;;;24.73;62.01;101689.19;5047237;28;20048;-71
2021/11/09 08:58:39;;;;;;;15.55;8.60;;;;;;;24.66;61.55;101690.28;5056629;28;20153;-70
2021/11/09 09:01:21;;;;;;;15.63;7.70;;;;;;;24.67;61.59;101676.75;5033438;28;20055;-71
2021/11/09 09:06:36;;;;;;;14.93;8.35;;;;;;;24.78;61.47;101681.84;5036663;28;20428;-71
2021/11/09 09:09:05;;;;;;;15.35;7.35;;;;;;;24.93;61.52;101689.53;5048359;28;20072;-71
2021/11/09 09:11:32;;;;;;;16.50;7.88;;;;;;;25.04;60.93;101684.69;5060693;28;20063;-71
2021/11/09 09:14:00;;;;;;;14.50;7.95;;;;;;;25.09;61.08;101679.16;5058816;28;20080;-72
2021/11/09 09:16:29;;;;;;;10.68;6.88;;;;;;;25.05;60.55;101689.19;5065394;28;20135;-72
2021/11/09 09:18:58;;;;;;;15.85;7.38;;;;;;;25.07;60.75;101690.03;5066873;28;20115;-72
2021/11/09 09:21:30;;;;;;;11.93;7.75;;;;;;;25.06;60.30;101688.25;5043733;28;20048;-72
2021/11/09 09:24:04;;;;;;;16.55;8.45;;;;;;;25.05;60.54;101686.47;5053558;28;20377;-72
2021/11/09 09:26:37;;;;;;;15.80;7.90;;;;;;;24.98;60.42;101684.88;5048453;28;20056;-71
2021/11/09 09:54:20;;;;;;;13.93;6.88;;;;;;;25.22;57.61;101686.84;5038492;28;20037;-72
2021/11/09 09:56:54;;;;;;;11.77;6.80;;;;;;;25.28;57.55;101686.66;5035750;28;20126;-72
2021/11/09 09:59:23;;;;;;;10.32;5.72;;;;;;;25.42;57.08;101672.72;5039855;28;20102;-72
2021/11/09 10:02:06;;;;;;;11.43;5.50;;;;;;;25.48;56.48;101677.03;5040914;28;20160;-71
2021/11/09 10:04:36;;;;;;;11.85;7.07;;;;;;;25.47;56.69;101678.84;5038542;28;20041;-72
2021/11/09 10:07:05;;;;;;;11.98;6.78;;;;;;;25.53;56.45;101675.09;5042163;28;20493;-72
2021/11/09 10:09:37;;;;;;;12.68;5.85;;;;;;;25.48;56.26;101664.41;5048337;28;20068;-72
2021/11/09 10:12:34;;;;;;;14.48;6.03;;;;;;;25.49;56.23;101657.19;5036808;28;20702;-72
2021/11/09 10:15:12;;;;;;;15.75;7.00;;;;;;;25.43;56.79;101663.69;5038243;28;20401;-72
2021/11/09 10:17:41;;;;;;;12.85;5.75;;;;;;;25.38;56.56;101669.25;5042440;28;20522;-73
2021/11/09 10:20:15;;;;;;;11.80;6.45;;;;;;;25.30;56.45;101667.69;5039958;28;20049;-72
2021/11/09 10:22:44;;;;;;;16.25;6.90;;;;;;;25.26;56.92;101660.63;5048194;28;20052;-75
2021/11/09 10:25:16;;;;;;;12.68;6.65;;;;;;;25.28;57.25;101656.03;5043525;28;20123;-73
2021/11/09 10:27:47;;;;;;;16.58;7.10;;;;;;;25.27;57.42;101655.16;5044525;28;20164;-73
2021/11/09 10:30:18;;;;;;;14.40;7.25;;;;;;;25.45;57.20;101661.81;5039974;28;20045;-72
2021/11/09 10:32:46;;;;;;;15.93;8.20;;;;;;;25.49;56.92;101657.19;5038462;28;20033;-73
2021/11/09 10:35:17;;;;;;;13.10;7.20;;;;;;;25.53;56.55;101665.19;5040613;28;20127;-72
2021/11/09 10:37:48;;;;;;;15.80;8.45;;;;;;;25.50;56.52;101657.13;5034751;28;20041;-73
2021/11/09 10:40:19;;;;;;;15.15;8.10;;;;;;;25.55;57.06;101651.56;5039616;28;20051;-72
2021/11/09 10:42:51;;;;;;;14.93;6.47;;;;;;;25.53;56.98;101651.66;5038601;28;20116;-72
2021/11/09 10:45:21;;;;;;;18.58;8.68;;;;;;;25.44;57.29;101664.56;5043234;28;20055;-72
2021/11/09 10:47:52;;;;;;;14.88;7.32;;;;;;;25.37;57.57;101661.16;5027265;28;20048;-72
2021/11/09 10:50:23;;;;;;;32.25;16.80;;;;;;;25.22;57.34;101670.63;5031065;28;20053;-72
2021/11/09 10:53:02;;;;;;;42.55;24.15;;;;;;;25.09;57.49;101657.53;5045659;28;20053;-72
2021/11/09 10:55:35;;;;;;;18.08;10.48;;;;;;;25.00;58.06;101667.72;5031738;28;20095;-73
2021/11/09 10:58:29;;;;;;;15.10;6.85;;;;;;;24.97;57.55;101670.47;5028366;28;20798;-73
2021/11/09 11:03:54;;;;;;;14.88;6.82;;;;;;;25.07;57.23;101656.72;5042807;28;20043;-71
2021/11/09 11:06:23;;;;;;;15.60;7.47;;;;;;;25.09;56.88;101663.81;5048985;28;20546;-73
2021/11/09 11:08:53;;;;;;;12.57;7.13;;;;;;;25.10;57.30;101660.19;5046743;28;20356;-72
2021/11/09 11:11:23;;;;;;;14.02;6.47;;;;;;;25.06;56.75;101669.34;5047687;28;20037;-72
2021/11/09 11:13:55;;;;;;;13.32;7.05;;;;;;;24.94;56.20;101664.31;5047568;28;20044;-72
2021/11/09 11:16:27;;;;;;;13.18;6.68;;;;;;;24.75;56.62;101654.88;5048967;28;20420;-71
2021/11/09 11:18:55;;;;;;;15.07;8.57;;;;;;;24.63;56.84;101656.13;5046951;28;20043;-73
2021/11/09 11:21:25;;;;;;;18.58;7.95;;;;;;;24.56;57.16;101658.13;5049340;28;20051;-72
2021/11/09 11:23:53;;;;;;;14.75;6.97;;;;;;;24.60;57.66;101651.72;5058465;28;20040;-73
2021/11/09 11:26:23;;;;;;;15.48;6.68;;;;;;;24.67;57.63;101654.25;5066820;28;20119;-72
2021/11/09 11:28:56;;;;;;;13.30;7.03;;;;;;;24.55;57.66;101661.75;5051328;28;20120;-72
2021/11/09 11:31:26;;;;;;;11.40;6.70;;;;;;;24.42;57.69;101656.72;5068463;28;20072;-72
2021/11/09 11:33:54;;;;;;;13.45;6.60;;;;;;;24.35;57.76;101658.69;5053476;28;20044;-73
2021/11/09 11:36:22;;;;;;;16.20;7.10;;;;;;;24.31;57.75;101664.25;5040705;28;20481;-72
2021/11/09 11:38:53;;;;;;;11.60;6.88;;;;;;;24.21;57.62;101655.50;5068477;28;20059;-72
2021/11/09 11:41:23;;;;;;;11.68;6.68;;;;;;;24.06;57.37;101651.34;5047719;28;20044;-72
2021/11/09 11:43:55;;;;;;;13.50;6.93;;;;;;;24.00;57.74;101653.34;5040485;28;20051;-72
2021/11/09 11:46:44;;;;;;;15.77;8.23;;;;;;;23.99;58.10;101659.66;5066436;28;20041;-73
2021/11/09 11:49:15;;;;;;;12.57;7.50;;;;;;;23.91;58.51;101667.94;5051893;28;20048;-73
2021/11/09 11:52:12;;;;;;;14.52;8.00;;;;;;;23.86;59.65;101663.56;5050597;28;20064;-73
2021/11/09 11:54:47;;;;;;;14.80;7.53;;;;;;;23.73;60.57;101663.88;5067198;28;20090;-73
2021/11/09 11:57:36;;;;;;;16.83;8.38;;;;;;;23.71;61.16;101664.84;5053401;28;20449;-72
2021/11/09 12:00:32;;;;;;;17.42;8.32;;;;;;;23.69;61.63;101667.59;5038953;28;20151;-73
2021/11/09 12:03:02;;;;;;;18.02;8.85;;;;;;;23.65;61.66;101671.25;5037406;28;20098;-73
2021/11/09 12:05:38;;;;;;;16.70;9.07;;;;;;;23.61;62.19;101664.19;5049463;28;20048;-73
2021/11/09 12:08:08;;;;;;;15.05;8.70;;;;;;;23.59;62.23;101674.09;5040725;28;20449;-72
2021/11/09 12:10:45;;;;;;;15.45;8.52;;;;;;;23.64;62.53;101672.19;5065977;28;20061;-72
2021/11/09 12:13:16;;;;;;;18.23;9.38;;;;;;;23.63;62.64;101673.09;5066471;28;20044;-73
2021/11/09 12:16:05;;;;;;;14.63;8.73;;;;;;;23.68;62.58;101682.00;5064841;28;20043;-72
2021/11/09 12:18:41;;;;;;;14.00;8.65;;;;;;;23.71;62.67;101683.72;5066882;28;20045;-72
2021/11/09 12:21:29;;;;;;;15.95;9.65;;;;;;;23.74;62.63;101680.97;5066312;28;20040;-73
2021/11/09 12:24:17;;;;;;;19.35;9.05;;;;;;;23.75;62.84;101683.63;5050022;28;20162;-73
2021/11/09 12:26:48;;;;;;;15.30;9.32;;;;;;;23.76;62.88;101684.50;5048051;28;20111;-72
2021/11/09 12:29:48;;;;;;;15.23;8.73;;;;;;;23.78;63.23;101678.13;5044157;28;20126;-72
2021/11/09 12:32:31;;;;;;;17.45;8.38;;;;;;;23.82;62.97;101679.84;5046167;28;20055;-75
2021/11/09 12:35:03;;;;;;;17.10;9.60;;;;;;;23.84;62.91;101677.97;5044489;28;20037;-73
2021/11/09 12:37:32;;;;;;;16.88;9.75;;;;;;;23.87;62.80;101681.53;5013349;28;20041;-73
2021/11/09 12:40:25;;;;;;;17.45;9.40;;;;;;;23.89;63.01;101682.41;5035692;28;20090;-72
2021/11/09 12:43:05;;;;;;;18.60;9.45;;;;;;;23.79;62.92;101677.22;5048189;28;20061;-72
2021/11/09 12:45:33;;;;;;;16.35;9.23;;;;;;;23.70;63.05;101679.22;5045703;28;20041;-72
2021/11/09 12:48:03;;;;;;;15.20;9.25;;;;;;;23.63;62.94;101675.78;5034366;28;20042;-73
2021/11/09 12:50:32;;;;;;;13.75;8.63;;;;;;;23.55;63.17;101687.72;5049321;28;20489;-72
2021/11/09 12:53:10;;;;;;;18.90;10.05;;;;;;;23.50;63.22;101685.09;5050094;28;20091;-71
2021/11/09 12:55:40;;;;;;;21.33;10.07;;;;;;;23.48;63.43;101695.06;5052078;28;20049;-73
2021/11/09 12:58:19;;;;;;;18.27;10.18;;;;;;;23.47;63.79;101700.44;5033603;28;20095;-72
2021/11/09 13:01:19;;;;;;;20.13;11.30;;;;;;;23.44;63.75;101699.56;5052156;28;20529;-72
2021/11/09 13:04:09;;;;;;;21.80;11.77;;;;;;;23.44;63.95;101704.97;5052042;28;20053;-72
2021/11/09 13:06:42;;;;;;;20.10;11.10;;;;;;;23.42;63.84;101700.53;5050090;28;20602;-72
2021/11/09 13:09:29;;;;;;;19.80;11.00;;;;;;;23.44;64.04;101706.75;5050622;28;20036;-73
2021/11/09 13:12:00;;;;;;;17.92;10.68;;;;;;;23.48;64.02;101703.13;5049278;28;20037;-72
2021/11/09 13:14:34;;;;;;;15.98;9.27;;;;;;;23.54;64.14;101696.72;5048047;28;20041;-72
2021/11/09 13:17:14;;;;;;;17.80;9.82;;;;;;;23.53;64.11;101693.13;5034896;28;20556;-72